sensor_id;sensor_type;location;lat;lon;timestamp;temperature;humidity
65478;SHT31;53678;39.642;22.430;2022-11-18T00:03:32;13.97;88.37
65478;SHT31;53678;39.642;22.430;2022-11-18T00:06:00;13.93;88.76
65478;SHT31;53678;39.642;22.430;2022-11-18T00:08:27;13.84;88.96
65478;SHT31;53678;39.642;22.430;2022-11-18T00:10:52;13.83;89.02
65478;SHT31;53678;39.642;22.430;2022-11-18T00:13:21;13.86;88.98
65478;SHT31;53678;39.642;22.430;2022-11-18T00:16:09;13.91;88.89
65478;SHT31;53678;39.642;22.430;2022-11-18T00:18:36;13.94;88.62
65478;SHT31;53678;39.642;22.430;2022-11-18T00:21:11;14.00;88.97
65478;SHT31;53678;39.642;22.430;2022-11-18T00:23:40;14.04;88.51
65478;SHT31;53678;39.642;22.430;2022-11-18T00:26:13;14.11;88.51
65478;SHT31;53678;39.642;22.430;2022-11-18T00:28:40;14.20;88.37
65478;SHT31;53678;39.642;22.430;2022-11-18T00:31:15;14.24;88.23
65478;SHT31;53678;39.642;22.430;2022-11-18T00:33:41;14.20;87.95
65478;SHT31;53678;39.642;22.430;2022-11-18T00:36:09;14.21;87.61
65478;SHT31;53678;39.642;22.430;2022-11-18T00:38:38;14.18;87.42
65478;SHT31;53678;39.642;22.430;2022-11-18T00:41:12;14.14;87.83
65478;SHT31;53678;39.642;22.430;2022-11-18T00:43:39;14.13;88.14
65478;SHT31;53678;39.642;22.430;2022-11-18T00:46:06;14.16;88.02
65478;SHT31;53678;39.642;22.430;2022-11-18T00:48:35;14.18;88.10
65478;SHT31;53678;39.642;22.430;2022-11-18T00:51:13;14.20;87.73
65478;SHT31;53678;39.642;22.430;2022-11-18T00:53:41;14.16;87.91
65478;SHT31;53678;39.642;22.430;2022-11-18T00:56:07;14.10;88.07
65478;SHT31;53678;39.642;22.430;2022-11-18T00:58:37;14.11;88.10
65478;SHT31;53678;39.642;22.430;2022-11-18T01:01:03;14.09;87.93
65478;SHT31;53678;39.642;22.430;2022-11-18T01:03:29;14.10;87.96
65478;SHT31;53678;39.642;22.430;2022-11-18T01:05:55;14.10;88.03
65478;SHT31;53678;39.642;22.430;2022-11-18T01:08:22;14.10;88.09
65478;SHT31;53678;39.642;22.430;2022-11-18T01:10:48;14.13;88.05
65478;SHT31;53678;39.642;22.430;2022-11-18T01:13:17;14.07;87.87
65478;SHT31;53678;39.642;22.430;2022-11-18T01:15:47;13.93;88.16
65478;SHT31;53678;39.642;22.430;2022-11-18T01:18:14;13.91;88.53
65478;SHT31;53678;39.642;22.430;2022-11-18T01:20:40;13.93;88.78
65478;SHT31;53678;39.642;22.430;2022-11-18T01:23:07;13.99;88.79
65478;SHT31;53678;39.642;22.430;2022-11-18T01:25:36;13.97;88.72
65478;SHT31;53678;39.642;22.430;2022-11-18T01:28:03;13.97;88.66
65478;SHT31;53678;39.642;22.430;2022-11-18T01:30:32;14.01;88.65
65478;SHT31;53678;39.642;22.430;2022-11-18T01:32:58;13.99;88.49
65478;SHT31;53678;39.642;22.430;2022-11-18T01:35:24;14.06;88.73
65478;SHT31;53678;39.642;22.430;2022-11-18T01:37:50;14.03;88.46
65478;SHT31;53678;39.642;22.430;2022-11-18T01:40:16;13.90;88.64
65478;SHT31;53678;39.642;22.430;2022-11-18T01:42:43;13.67;89.69
65478;SHT31;53678;39.642;22.430;2022-11-18T01:45:20;13.65;90.21
65478;SHT31;53678;39.642;22.430;2022-11-18T01:50:29;13.80;89.50
65478;SHT31;53678;39.642;22.430;2022-11-18T01:53:00;13.82;89.29
65478;SHT31;53678;39.642;22.430;2022-11-18T01:55:30;13.84;89.68
65478;SHT31;53678;39.642;22.430;2022-11-18T01:58:05;13.74;89.53
65478;SHT31;53678;39.642;22.430;2022-11-18T02:00:32;13.62;89.88
65478;SHT31;53678;39.642;22.430;2022-11-18T02:02:59;13.55;90.28
65478;SHT31;53678;39.642;22.430;2022-11-18T02:05:27;13.55;90.00
65478;SHT31;53678;39.642;22.430;2022-11-18T02:07:53;13.15;91.50
65478;SHT31;53678;39.642;22.430;2022-11-18T02:10:22;13.26;91.08
65478;SHT31;53678;39.642;22.430;2022-11-18T02:12:51;13.29;90.64
65478;SHT31;53678;39.642;22.430;2022-11-18T02:15:24;13.18;91.45
65478;SHT31;53678;39.642;22.430;2022-11-18T02:20:36;13.22;91.29
65478;SHT31;53678;39.642;22.430;2022-11-18T02:23:41;13.29;91.25
65478;SHT31;53678;39.642;22.430;2022-11-18T02:28:59;13.42;90.73
65478;SHT31;53678;39.642;22.430;2022-11-18T02:31:56;13.56;90.03
65478;SHT31;53678;39.642;22.430;2022-11-18T02:37:12;13.87;89.84
65478;SHT31;53678;39.642;22.430;2022-11-18T02:39:50;14.01;88.74
65478;SHT31;53678;39.642;22.430;2022-11-18T02:42:18;14.14;88.44
65478;SHT31;53678;39.642;22.430;2022-11-18T02:44:50;14.27;87.43
65478;SHT31;53678;39.642;22.430;2022-11-18T02:47:19;14.20;87.81
65478;SHT31;53678;39.642;22.430;2022-11-18T02:49:51;14.21;87.99
65478;SHT31;53678;39.642;22.430;2022-11-18T02:52:19;14.17;87.95
65478;SHT31;53678;39.642;22.430;2022-11-18T02:54:47;14.07;88.36
65478;SHT31;53678;39.642;22.430;2022-11-18T02:57:14;13.91;89.24
65478;SHT31;53678;39.642;22.430;2022-11-18T02:59:40;13.99;88.81
65478;SHT31;53678;39.642;22.430;2022-11-18T03:02:13;14.04;88.67
65478;SHT31;53678;39.642;22.430;2022-11-18T03:04:40;14.11;88.26
65478;SHT31;53678;39.642;22.430;2022-11-18T03:07:14;14.24;87.70
65478;SHT31;53678;39.642;22.430;2022-11-18T03:09:46;14.17;87.53
65478;SHT31;53678;39.642;22.430;2022-11-18T03:17:59;14.24;87.52
65478;SHT31;53678;39.642;22.430;2022-11-18T03:20:33;14.38;86.01
65478;SHT31;53678;39.642;22.430;2022-11-18T03:30:52;14.01;88.61
65478;SHT31;53678;39.642;22.430;2022-11-18T03:33:23;14.13;88.10
65478;SHT31;53678;39.642;22.430;2022-11-18T03:35:52;13.91;88.55
65478;SHT31;53678;39.642;22.430;2022-11-18T03:38:24;13.94;88.60
65478;SHT31;53678;39.642;22.430;2022-11-18T03:40:56;13.89;88.79
65478;SHT31;53678;39.642;22.430;2022-11-18T03:43:26;13.70;89.27
65478;SHT31;53678;39.642;22.430;2022-11-18T03:45:59;13.73;89.06
65478;SHT31;53678;39.642;22.430;2022-11-18T03:48:34;13.66;89.12
65478;SHT31;53678;39.642;22.430;2022-11-18T03:51:05;13.69;89.56
65478;SHT31;53678;39.642;22.430;2022-11-18T03:53:35;13.79;89.34
65478;SHT31;53678;39.642;22.430;2022-11-18T03:56:08;13.73;89.63
65478;SHT31;53678;39.642;22.430;2022-11-18T03:58:45;13.73;89.75
65478;SHT31;53678;39.642;22.430;2022-11-18T04:01:20;13.80;89.38
65478;SHT31;53678;39.642;22.430;2022-11-18T04:03:49;13.84;89.31
65478;SHT31;53678;39.642;22.430;2022-11-18T04:06:24;13.83;89.36
65478;SHT31;53678;39.642;22.430;2022-11-18T04:08:56;13.89;89.59
65478;SHT31;53678;39.642;22.430;2022-11-18T04:11:29;13.86;89.26
65478;SHT31;53678;39.642;22.430;2022-11-18T04:14:15;13.82;89.32
65478;SHT31;53678;39.642;22.430;2022-11-18T04:16:44;13.90;89.02
65478;SHT31;53678;39.642;22.430;2022-11-18T04:19:10;13.96;88.99
65478;SHT31;53678;39.642;22.430;2022-11-18T04:21:37;13.87;88.75
65478;SHT31;53678;39.642;22.430;2022-11-18T04:24:03;13.84;89.13
65478;SHT31;53678;39.642;22.430;2022-11-18T04:26:29;13.83;89.20
65478;SHT31;53678;39.642;22.430;2022-11-18T04:28:56;13.83;89.19
65478;SHT31;53678;39.642;22.430;2022-11-18T04:31:21;13.83;89.18
65478;SHT31;53678;39.642;22.430;2022-11-18T04:33:47;13.84;89.13
65478;SHT31;53678;39.642;22.430;2022-11-18T04:36:15;13.89;88.93
65478;SHT31;53678;39.642;22.430;2022-11-18T04:38:41;13.87;88.85
65478;SHT31;53678;39.642;22.430;2022-11-18T04:41:06;13.91;88.60
65478;SHT31;53678;39.642;22.430;2022-11-18T04:43:32;13.82;88.91
65478;SHT31;53678;39.642;22.430;2022-11-18T04:45:58;13.66;89.45
65478;SHT31;53678;39.642;22.430;2022-11-18T04:48:24;13.59;89.43
65478;SHT31;53678;39.642;22.430;2022-11-18T04:50:50;13.51;89.75
65478;SHT31;53678;39.642;22.430;2022-11-18T04:53:16;13.08;91.10
65478;SHT31;53678;39.642;22.430;2022-11-18T04:55:41;12.91;91.79
65478;SHT31;53678;39.642;22.430;2022-11-18T04:58:08;12.56;92.48
65478;SHT31;53678;39.642;22.430;2022-11-18T05:00:33;12.46;92.76
65478;SHT31;53678;39.642;22.430;2022-11-18T05:03:00;12.59;92.37
65478;SHT31;53678;39.642;22.430;2022-11-18T05:05:26;12.70;91.64
65478;SHT31;53678;39.642;22.430;2022-11-18T05:07:52;12.63;91.85
65478;SHT31;53678;39.642;22.430;2022-11-18T05:10:19;12.47;92.29
65478;SHT31;53678;39.642;22.430;2022-11-18T05:12:45;12.42;92.67
65478;SHT31;53678;39.642;22.430;2022-11-18T05:15:18;12.37;92.43
65478;SHT31;53678;39.642;22.430;2022-11-18T05:17:45;12.35;92.65
65478;SHT31;53678;39.642;22.430;2022-11-18T05:20:13;12.47;92.35
65478;SHT31;53678;39.642;22.430;2022-11-18T05:22:39;12.60;91.66
65478;SHT31;53678;39.642;22.430;2022-11-18T05:25:06;12.49;91.62
65478;SHT31;53678;39.642;22.430;2022-11-18T05:27:33;12.05;92.80
65478;SHT31;53678;39.642;22.430;2022-11-18T05:29:59;12.09;93.11
65478;SHT31;53678;39.642;22.430;2022-11-18T05:32:25;12.26;93.08
65478;SHT31;53678;39.642;22.430;2022-11-18T05:34:51;12.42;92.72
65478;SHT31;53678;39.642;22.430;2022-11-18T05:37:17;12.56;92.53
65478;SHT31;53678;39.642;22.430;2022-11-18T05:39:43;12.66;92.24
65478;SHT31;53678;39.642;22.430;2022-11-18T05:42:09;12.73;91.61
65478;SHT31;53678;39.642;22.430;2022-11-18T05:44:54;13.01;90.73
65478;SHT31;53678;39.642;22.430;2022-11-18T05:47:20;13.10;90.62
65478;SHT31;53678;39.642;22.430;2022-11-18T05:49:46;13.65;88.71
65478;SHT31;53678;39.642;22.430;2022-11-18T05:52:11;14.00;87.16
65478;SHT31;53678;39.642;22.430;2022-11-18T05:54:41;14.71;85.06
65478;SHT31;53678;39.642;22.430;2022-11-18T05:57:09;15.64;81.84
65478;SHT31;53678;39.642;22.430;2022-11-18T05:59:35;16.12;79.08
65478;SHT31;53678;39.642;22.430;2022-11-18T06:02:04;16.49;78.27
65478;SHT31;53678;39.642;22.430;2022-11-18T06:04:47;16.15;78.90
65478;SHT31;53678;39.642;22.430;2022-11-18T06:07:25;16.47;78.40
65478;SHT31;53678;39.642;22.430;2022-11-18T06:09:56;17.21;76.30
65478;SHT31;53678;39.642;22.430;2022-11-18T06:12:26;17.72;75.37
65478;SHT31;53678;39.642;22.430;2022-11-18T06:15:02;18.55;71.86
65478;SHT31;53678;39.642;22.430;2022-11-18T06:17:38;18.45;71.06
65478;SHT31;53678;39.642;22.430;2022-11-18T06:20:05;18.30;72.25
65478;SHT31;53678;39.642;22.430;2022-11-18T06:22:33;18.30;72.80
65478;SHT31;53678;39.642;22.430;2022-11-18T06:25:00;18.12;73.40
65478;SHT31;53678;39.642;22.430;2022-11-18T06:27:27;18.32;71.40
65478;SHT31;53678;39.642;22.430;2022-11-18T06:29:54;18.44;71.33
65478;SHT31;53678;39.642;22.430;2022-11-18T06:32:21;18.55;70.72
65478;SHT31;53678;39.642;22.430;2022-11-18T06:34:48;18.37;71.67
65478;SHT31;53678;39.642;22.430;2022-11-18T06:37:15;18.65;70.56
65478;SHT31;53678;39.642;22.430;2022-11-18T06:39:42;17.96;72.61
65478;SHT31;53678;39.642;22.430;2022-11-18T06:42:08;18.38;72.39
65478;SHT31;53678;39.642;22.430;2022-11-18T06:44:34;18.12;72.14
65478;SHT31;53678;39.642;22.430;2022-11-18T06:47:00;18.22;71.97
65478;SHT31;53678;39.642;22.430;2022-11-18T06:49:28;18.42;71.91
65478;SHT31;53678;39.642;22.430;2022-11-18T06:51:54;18.75;70.94
65478;SHT31;53678;39.642;22.430;2022-11-18T06:54:20;19.16;69.58
65478;SHT31;53678;39.642;22.430;2022-11-18T06:56:46;19.32;69.24
65478;SHT31;53678;39.642;22.430;2022-11-18T06:59:13;19.23;69.18
65478;SHT31;53678;39.642;22.430;2022-11-18T07:01:39;18.68;70.84
65478;SHT31;53678;39.642;22.430;2022-11-18T07:04:06;19.03;70.06
65478;SHT31;53678;39.642;22.430;2022-11-18T07:06:34;19.04;69.60
65478;SHT31;53678;39.642;22.430;2022-11-18T07:09:03;18.97;70.48
65478;SHT31;53678;39.642;22.430;2022-11-18T07:11:32;18.73;70.49
65478;SHT31;53678;39.642;22.430;2022-11-18T07:13:58;18.68;71.01
65478;SHT31;53678;39.642;22.430;2022-11-18T07:16:26;18.69;71.18
65478;SHT31;53678;39.642;22.430;2022-11-18T07:18:53;18.70;70.79
65478;SHT31;53678;39.642;22.430;2022-11-18T07:21:22;18.55;71.41
65478;SHT31;53678;39.642;22.430;2022-11-18T07:23:48;18.47;71.83
65478;SHT31;53678;39.642;22.430;2022-11-18T07:26:15;18.49;72.29
65478;SHT31;53678;39.642;22.430;2022-11-18T07:28:41;18.65;71.46
65478;SHT31;53678;39.642;22.430;2022-11-18T07:31:13;18.79;70.56
65478;SHT31;53678;39.642;22.430;2022-11-18T07:33:40;18.63;71.11
65478;SHT31;53678;39.642;22.430;2022-11-18T07:36:12;18.47;72.05
65478;SHT31;53678;39.642;22.430;2022-11-18T07:38:39;18.44;71.66
65478;SHT31;53678;39.642;22.430;2022-11-18T07:41:37;18.70;71.09
65478;SHT31;53678;39.642;22.430;2022-11-18T07:44:04;18.92;70.54
65478;SHT31;53678;39.642;22.430;2022-11-18T07:46:33;19.10;70.40
65478;SHT31;53678;39.642;22.430;2022-11-18T07:49:01;19.38;69.84
65478;SHT31;53678;39.642;22.430;2022-11-18T07:51:29;19.51;68.69
65478;SHT31;53678;39.642;22.430;2022-11-18T07:53:56;19.48;68.68
65478;SHT31;53678;39.642;22.430;2022-11-18T07:56:23;19.37;69.28
65478;SHT31;53678;39.642;22.430;2022-11-18T07:58:53;19.47;69.39
65478;SHT31;53678;39.642;22.430;2022-11-18T08:01:21;19.61;67.88
65478;SHT31;53678;39.642;22.430;2022-11-18T08:03:47;19.64;68.38
65478;SHT31;53678;39.642;22.430;2022-11-18T08:06:16;19.65;68.40
65478;SHT31;53678;39.642;22.430;2022-11-18T08:08:44;19.68;68.52
65478;SHT31;53678;39.642;22.430;2022-11-18T08:11:12;19.69;68.01
65478;SHT31;53678;39.642;22.430;2022-11-18T08:13:39;19.72;68.24
65478;SHT31;53678;39.642;22.430;2022-11-18T08:16:12;19.76;68.22
65478;SHT31;53678;39.642;22.430;2022-11-18T08:18:39;19.82;67.80
65478;SHT31;53678;39.642;22.430;2022-11-18T08:21:05;19.76;67.81
65478;SHT31;53678;39.642;22.430;2022-11-18T08:23:32;19.83;67.63
65478;SHT31;53678;39.642;22.430;2022-11-18T08:26:07;19.83;67.45
65478;SHT31;53678;39.642;22.430;2022-11-18T08:28:34;19.93;67.99
65478;SHT31;53678;39.642;22.430;2022-11-18T08:31:07;19.86;68.31
65478;SHT31;53678;39.642;22.430;2022-11-18T08:33:32;19.95;68.11
65478;SHT31;53678;39.642;22.430;2022-11-18T08:36:26;20.00;68.08
65478;SHT31;53678;39.642;22.430;2022-11-18T08:38:51;20.06;68.12
65478;SHT31;53678;39.642;22.430;2022-11-18T08:41:33;19.96;67.96
65478;SHT31;53678;39.642;22.430;2022-11-18T08:44:00;20.13;67.75
65478;SHT31;53678;39.642;22.430;2022-11-18T08:46:27;20.33;67.36
65478;SHT31;53678;39.642;22.430;2022-11-18T08:48:53;20.16;67.19
65478;SHT31;53678;39.642;22.430;2022-11-18T08:51:19;20.33;66.72
65478;SHT31;53678;39.642;22.430;2022-11-18T08:53:45;20.27;66.88
65478;SHT31;53678;39.642;22.430;2022-11-18T08:56:17;20.46;66.42
65478;SHT31;53678;39.642;22.430;2022-11-18T08:58:45;20.20;66.98
65478;SHT31;53678;39.642;22.430;2022-11-18T09:01:11;20.44;66.68
65478;SHT31;53678;39.642;22.430;2022-11-18T09:03:38;20.54;66.25
65478;SHT31;53678;39.642;22.430;2022-11-18T09:06:17;20.63;65.56
65478;SHT31;53678;39.642;22.430;2022-11-18T09:08:44;20.81;65.19
65478;SHT31;53678;39.642;22.430;2022-11-18T09:11:17;20.70;65.41
65478;SHT31;53678;39.642;22.430;2022-11-18T09:13:43;20.68;64.99
65478;SHT31;53678;39.642;22.430;2022-11-18T09:16:09;20.70;65.25
65478;SHT31;53678;39.642;22.430;2022-11-18T09:18:35;20.74;65.06
65478;SHT31;53678;39.642;22.430;2022-11-18T09:21:04;20.73;64.66
65478;SHT31;53678;39.642;22.430;2022-11-18T09:23:33;20.81;64.33
65478;SHT31;53678;39.642;22.430;2022-11-18T09:26:03;20.67;64.99
65478;SHT31;53678;39.642;22.430;2022-11-18T09:28:30;20.51;65.54
65478;SHT31;53678;39.642;22.430;2022-11-18T09:30:56;20.32;66.02
65478;SHT31;53678;39.642;22.430;2022-11-18T09:33:22;20.43;66.01
65478;SHT31;53678;39.642;22.430;2022-11-18T09:35:49;20.43;66.20
65478;SHT31;53678;39.642;22.430;2022-11-18T09:38:16;20.55;65.78
65478;SHT31;53678;39.642;22.430;2022-11-18T09:41:04;20.70;65.90
65478;SHT31;53678;39.642;22.430;2022-11-18T09:46:44;20.48;66.61
65478;SHT31;53678;39.642;22.430;2022-11-18T09:49:26;20.64;66.23
65478;SHT31;53678;39.642;22.430;2022-11-18T09:51:53;20.75;65.90
65478;SHT31;53678;39.642;22.430;2022-11-18T09:54:23;20.71;66.22
65478;SHT31;53678;39.642;22.430;2022-11-18T09:56:51;20.75;65.93
65478;SHT31;53678;39.642;22.430;2022-11-18T09:59:19;20.32;67.26
65478;SHT31;53678;39.642;22.430;2022-11-18T10:01:47;20.36;67.28
65478;SHT31;53678;39.642;22.430;2022-11-18T10:04:15;20.34;67.49
65478;SHT31;53678;39.642;22.430;2022-11-18T10:06:41;20.40;67.63
65478;SHT31;53678;39.642;22.430;2022-11-18T10:22:42;20.94;65.87
65478;SHT31;53678;39.642;22.430;2022-11-18T10:25:14;21.01;65.73
65478;SHT31;53678;39.642;22.430;2022-11-18T10:27:42;20.87;65.93
65478;SHT31;53678;39.642;22.430;2022-11-18T10:30:21;21.01;66.10
65478;SHT31;53678;39.642;22.430;2022-11-18T10:43:42;21.25;64.09
65478;SHT31;53678;39.642;22.430;2022-11-18T10:46:33;21.13;64.53
65478;SHT31;53678;39.642;22.430;2022-11-18T10:52:09;21.04;65.08
65478;SHT31;53678;39.642;22.430;2022-11-18T10:54:27;21.16;64.56
65478;SHT31;53678;39.642;22.430;2022-11-18T10:56:53;21.22;64.69
65478;SHT31;53678;39.642;22.430;2022-11-18T11:02:29;21.56;63.51
65478;SHT31;53678;39.642;22.430;2022-11-18T11:05:00;21.80;62.48
65478;SHT31;53678;39.642;22.430;2022-11-18T11:07:37;21.66;62.76
65478;SHT31;53678;39.642;22.430;2022-11-18T11:12:37;21.60;63.39
65478;SHT31;53678;39.642;22.430;2022-11-18T11:15:30;21.74;62.96
65478;SHT31;53678;39.642;22.430;2022-11-18T11:18:11;21.80;62.47
65478;SHT31;53678;39.642;22.430;2022-11-18T11:20:58;21.86;61.81
65478;SHT31;53678;39.642;22.430;2022-11-18T11:23:25;21.98;60.45
65478;SHT31;53678;39.642;22.430;2022-11-18T11:26:06;22.11;59.56
65478;SHT31;53678;39.642;22.430;2022-11-18T11:48:44;22.29;57.54
65478;SHT31;53678;39.642;22.430;2022-11-18T11:51:24;22.25;57.90
65478;SHT31;53678;39.642;22.430;2022-11-18T11:56:33;22.32;57.95
65478;SHT31;53678;39.642;22.430;2022-11-18T12:05:33;22.49;58.03
65478;SHT31;53678;39.642;22.430;2022-11-18T12:07:46;22.51;56.97
65478;SHT31;53678;39.642;22.430;2022-11-18T12:10:28;22.49;56.22
65478;SHT31;53678;39.642;22.430;2022-11-18T12:19:07;22.58;52.57
65478;SHT31;53678;39.642;22.430;2022-11-18T12:24:33;22.49;52.97
65478;SHT31;53678;39.642;22.430;2022-11-18T12:29:51;22.48;51.70
65478;SHT31;53678;39.642;22.430;2022-11-18T12:32:35;22.49;52.36
65478;SHT31;53678;39.642;22.430;2022-11-18T12:43:03;22.31;52.94
65478;SHT31;53678;39.642;22.430;2022-11-18T12:45:54;22.35;53.27
65478;SHT31;53678;39.642;22.430;2022-11-18T12:48:38;22.48;53.25
65478;SHT31;53678;39.642;22.430;2022-11-18T12:53:44;22.76;52.49
65478;SHT31;53678;39.642;22.430;2022-11-18T12:56:20;22.76;53.18
65478;SHT31;53678;39.642;22.430;2022-11-18T12:58:53;22.89;52.89
65478;SHT31;53678;39.642;22.430;2022-11-18T13:01:28;22.68;53.09
65478;SHT31;53678;39.642;22.430;2022-11-18T13:04:18;22.58;53.63
65478;SHT31;53678;39.642;22.430;2022-11-18T13:06:47;22.45;53.96
65478;SHT31;53678;39.642;22.430;2022-11-18T13:09:20;22.35;53.65
65478;SHT31;53678;39.642;22.430;2022-11-18T13:11:57;22.25;54.30
65478;SHT31;53678;39.642;22.430;2022-11-18T13:14:29;22.21;54.70
65478;SHT31;53678;39.642;22.430;2022-11-18T13:17:34;22.22;54.54
65478;SHT31;53678;39.642;22.430;2022-11-18T13:28:37;22.17;54.89
65478;SHT31;53678;39.642;22.430;2022-11-18T13:36:45;22.11;54.92
65478;SHT31;53678;39.642;22.430;2022-11-18T13:39:22;22.04;54.97
65478;SHT31;53678;39.642;22.430;2022-11-18T13:42:04;22.04;54.98
65478;SHT31;53678;39.642;22.430;2022-11-18T13:44:37;22.07;54.63
65478;SHT31;53678;39.642;22.430;2022-11-18T13:47:23;22.10;54.33
65478;SHT31;53678;39.642;22.430;2022-11-18T13:49:57;22.07;54.37
65478;SHT31;53678;39.642;22.430;2022-11-18T13:52:30;22.01;53.69
65478;SHT31;53678;39.642;22.430;2022-11-18T13:55:00;21.90;54.26
65478;SHT31;53678;39.642;22.430;2022-11-18T13:57:27;21.76;54.49
65478;SHT31;53678;39.642;22.430;2022-11-18T13:59:53;21.67;54.75
65478;SHT31;53678;39.642;22.430;2022-11-18T14:02:20;21.60;54.71
65478;SHT31;53678;39.642;22.430;2022-11-18T14:04:55;21.43;54.98
65478;SHT31;53678;39.642;22.430;2022-11-18T14:07:29;21.35;55.38
65478;SHT31;53678;39.642;22.430;2022-11-18T14:10:01;21.22;55.79
65478;SHT31;53678;39.642;22.430;2022-11-18T14:12:32;21.21;55.66
65478;SHT31;53678;39.642;22.430;2022-11-18T14:15:21;21.18;56.03
65478;SHT31;53678;39.642;22.430;2022-11-18T14:17:58;21.13;56.42
65478;SHT31;53678;39.642;22.430;2022-11-18T14:20:27;21.11;56.45
65478;SHT31;53678;39.642;22.430;2022-11-18T14:23:03;21.08;56.92
65478;SHT31;53678;39.642;22.430;2022-11-18T14:25:32;21.02;57.52
65478;SHT31;53678;39.642;22.430;2022-11-18T14:33:37;20.81;58.45
65478;SHT31;53678;39.642;22.430;2022-11-18T14:36:14;20.78;58.57
65478;SHT31;53678;39.642;22.430;2022-11-18T14:38:50;20.73;58.58
65478;SHT31;53678;39.642;22.430;2022-11-18T14:41:19;20.71;58.76
65478;SHT31;53678;39.642;22.430;2022-11-18T14:44:04;20.67;58.88
65478;SHT31;53678;39.642;22.430;2022-11-18T14:46:36;20.63;59.08
65478;SHT31;53678;39.642;22.430;2022-11-18T14:49:10;20.53;59.73
65478;SHT31;53678;39.642;22.430;2022-11-18T14:51:37;20.50;60.62
65478;SHT31;53678;39.642;22.430;2022-11-18T14:54:04;20.51;60.22
65478;SHT31;53678;39.642;22.430;2022-11-18T14:56:30;20.53;59.27
65478;SHT31;53678;39.642;22.430;2022-11-18T14:58:57;20.51;59.31
65478;SHT31;53678;39.642;22.430;2022-11-18T15:01:24;20.57;58.71
65478;SHT31;53678;39.642;22.430;2022-11-18T15:03:52;20.60;58.47
65478;SHT31;53678;39.642;22.430;2022-11-18T15:06:20;20.60;58.32
65478;SHT31;53678;39.642;22.430;2022-11-18T15:08:51;20.61;58.31
65478;SHT31;53678;39.642;22.430;2022-11-18T15:11:17;20.60;58.67
65478;SHT31;53678;39.642;22.430;2022-11-18T15:13:46;20.58;58.82
65478;SHT31;53678;39.642;22.430;2022-11-18T15:16:14;20.54;59.37
65478;SHT31;53678;39.642;22.430;2022-11-18T15:18:42;20.43;59.63
65478;SHT31;53678;39.642;22.430;2022-11-18T15:21:08;20.40;59.59
65478;SHT31;53678;39.642;22.430;2022-11-18T15:23:35;20.39;59.87
65478;SHT31;53678;39.642;22.430;2022-11-18T15:26:02;20.37;60.07
65478;SHT31;53678;39.642;22.430;2022-11-18T15:28:34;20.29;60.61
65478;SHT31;53678;39.642;22.430;2022-11-18T15:31:00;20.22;60.83
65478;SHT31;53678;39.642;22.430;2022-11-18T15:33:26;20.17;60.89
65478;SHT31;53678;39.642;22.430;2022-11-18T15:35:52;20.15;60.78
65478;SHT31;53678;39.642;22.430;2022-11-18T15:38:19;20.22;60.84
65478;SHT31;53678;39.642;22.430;2022-11-18T15:40:44;20.17;61.01
65478;SHT31;53678;39.642;22.430;2022-11-18T15:43:10;20.20;61.26
65478;SHT31;53678;39.642;22.430;2022-11-18T15:45:36;20.17;61.51
65478;SHT31;53678;39.642;22.430;2022-11-18T15:48:02;20.10;61.76
65478;SHT31;53678;39.642;22.430;2022-11-18T15:50:28;20.08;62.00
65478;SHT31;53678;39.642;22.430;2022-11-18T15:52:54;20.12;62.11
65478;SHT31;53678;39.642;22.430;2022-11-18T15:55:20;20.05;62.22
65478;SHT31;53678;39.642;22.430;2022-11-18T15:57:46;20.12;62.36
65478;SHT31;53678;39.642;22.430;2022-11-18T16:00:12;20.16;62.67
65478;SHT31;53678;39.642;22.430;2022-11-18T16:02:38;20.22;62.95
65478;SHT31;53678;39.642;22.430;2022-11-18T16:05:05;20.20;63.16
65478;SHT31;53678;39.642;22.430;2022-11-18T16:07:30;20.16;63.68
65478;SHT31;53678;39.642;22.430;2022-11-18T16:09:57;20.25;63.94
65478;SHT31;53678;39.642;22.430;2022-11-18T16:12:41;20.39;63.71
65478;SHT31;53678;39.642;22.430;2022-11-18T16:15:14;20.34;63.86
65478;SHT31;53678;39.642;22.430;2022-11-18T16:18:00;20.47;64.05
65478;SHT31;53678;39.642;22.430;2022-11-18T16:20:26;20.41;64.10
65478;SHT31;53678;39.642;22.430;2022-11-18T16:22:52;20.34;64.23
65478;SHT31;53678;39.642;22.430;2022-11-18T16:25:20;20.37;64.52
65478;SHT31;53678;39.642;22.430;2022-11-18T16:27:47;20.33;64.89
65478;SHT31;53678;39.642;22.430;2022-11-18T16:30:13;20.26;64.99
65478;SHT31;53678;39.642;22.430;2022-11-18T16:33:00;20.12;65.53
65478;SHT31;53678;39.642;22.430;2022-11-18T16:35:26;20.02;66.10
65478;SHT31;53678;39.642;22.430;2022-11-18T16:37:53;20.16;66.27
65478;SHT31;53678;39.642;22.430;2022-11-18T16:40:20;20.08;66.66
65478;SHT31;53678;39.642;22.430;2022-11-18T16:42:50;20.15;66.66
65478;SHT31;53678;39.642;22.430;2022-11-18T16:45:17;20.02;67.01
65478;SHT31;53678;39.642;22.430;2022-11-18T16:47:44;20.10;67.07
65478;SHT31;53678;39.642;22.430;2022-11-18T16:50:10;20.15;67.19
65478;SHT31;53678;39.642;22.430;2022-11-18T16:52:36;20.13;67.09
65478;SHT31;53678;39.642;22.430;2022-11-18T16:55:03;20.06;67.28
65478;SHT31;53678;39.642;22.430;2022-11-18T16:57:29;20.06;67.66
65478;SHT31;53678;39.642;22.430;2022-11-18T16:59:56;20.20;67.32
65478;SHT31;53678;39.642;22.430;2022-11-18T17:02:21;20.06;67.53
65478;SHT31;53678;39.642;22.430;2022-11-18T17:04:48;20.20;67.04
65478;SHT31;53678;39.642;22.430;2022-11-18T17:07:14;20.13;67.09
65478;SHT31;53678;39.642;22.430;2022-11-18T17:09:43;20.06;67.39
65478;SHT31;53678;39.642;22.430;2022-11-18T17:12:09;20.12;67.49
65478;SHT31;53678;39.642;22.430;2022-11-18T17:14:36;20.02;67.70
65478;SHT31;53678;39.642;22.430;2022-11-18T17:17:03;19.90;67.99
65478;SHT31;53678;39.642;22.430;2022-11-18T17:19:30;19.82;68.47
65478;SHT31;53678;39.642;22.430;2022-11-18T17:21:57;19.88;68.45
65478;SHT31;53678;39.642;22.430;2022-11-18T17:24:23;19.83;68.50
65478;SHT31;53678;39.642;22.430;2022-11-18T17:26:50;19.93;68.31
65478;SHT31;53678;39.642;22.430;2022-11-18T17:29:17;19.88;68.33
65478;SHT31;53678;39.642;22.430;2022-11-18T17:31:43;19.86;68.47
65478;SHT31;53678;39.642;22.430;2022-11-18T17:34:13;19.95;68.26
65478;SHT31;53678;39.642;22.430;2022-11-18T17:36:40;19.88;68.66
65478;SHT31;53678;39.642;22.430;2022-11-18T17:39:09;19.96;68.00
65478;SHT31;53678;39.642;22.430;2022-11-18T17:41:35;19.86;68.35
65478;SHT31;53678;39.642;22.430;2022-11-18T17:44:19;19.71;68.94
65478;SHT31;53678;39.642;22.430;2022-11-18T17:49:30;19.83;68.80